sensor_id;sensor_type;location;lat;lon;timestamp;P1;durP1;ratioP1;P2;durP2;ratioP2
8704;SDS011;4389;41.932;25.904;2023-12-22T00:01:53;16.60;;;13.27;;
8704;SDS011;4389;41.932;25.904;2023-12-22T00:04:20;21.70;;;14.13;;
8704;SDS011;4389;41.932;25.904;2023-12-22T00:06:47;19.13;;;15.40;;
8704;SDS011;4389;41.932;25.904;2023-12-22T00:09:14;23.77;;;16.30;;
8704;SDS011;4389;41.932;25.904;2023-12-22T00:11:42;21.37;;;14.43;;
8704;SDS011;4389;41.932;25.904;2023-12-22T00:14:09;23.73;;;16.47;;
8704;SDS011;4389;41.932;25.904;2023-12-22T00:16:37;22.53;;;15.37;;
8704;SDS011;4389;41.932;25.904;2023-12-22T00:19:04;28.27;;;19.63;;
8704;SDS011;4389;41.932;25.904;2023-12-22T00:21:31;28.83;;;18.93;;
8704;SDS011;4389;41.932;25.904;2023-12-22T00:23:58;33.00;;;23.27;;
8704;SDS011;4389;41.932;25.904;2023-12-22T00:26:24;30.83;;;23.13;;
8704;SDS011;4389;41.932;25.904;2023-12-22T00:28:53;31.03;;;23.47;;
8704;SDS011;4389;41.932;25.904;2023-12-22T00:31:19;30.00;;;22.70;;
8704;SDS011;4389;41.932;25.904;2023-12-22T00:33:46;28.03;;;21.20;;
8704;SDS011;4389;41.932;25.904;2023-12-22T00:36:13;30.73;;;21.43;;
8704;SDS011;4389;41.932;25.904;2023-12-22T00:38:40;28.30;;;20.30;;
8704;SDS011;4389;41.932;25.904;2023-12-22T00:41:07;26.17;;;19.70;;
8704;SDS011;4389;41.932;25.904;2023-12-22T00:43:33;25.87;;;19.20;;
8704;SDS011;4389;41.932;25.904;2023-12-22T00:46:02;24.37;;;17.90;;
8704;SDS011;4389;41.932;25.904;2023-12-22T00:48:29;25.33;;;19.40;;
8704;SDS011;4389;41.932;25.904;2023-12-22T00:50:56;19.67;;;14.60;;
8704;SDS011;4389;41.932;25.904;2023-12-22T00:53:22;27.30;;;17.97;;
8704;SDS011;4389;41.932;25.904;2023-12-22T00:55:49;26.67;;;16.47;;
8704;SDS011;4389;41.932;25.904;2023-12-22T00:58:16;26.47;;;17.93;;
8704;SDS011;4389;41.932;25.904;2023-12-22T01:00:43;29.40;;;19.53;;
8704;SDS011;4389;41.932;25.904;2023-12-22T01:03:11;20.87;;;15.30;;
8704;SDS011;4389;41.932;25.904;2023-12-22T01:05:38;18.87;;;14.83;;
8704;SDS011;4389;41.932;25.904;2023-12-22T01:08:05;26.67;;;19.17;;
8704;SDS011;4389;41.932;25.904;2023-12-22T01:10:32;20.53;;;14.73;;
8704;SDS011;4389;41.932;25.904;2023-12-22T01:12:59;21.20;;;15.27;;
8704;SDS011;4389;41.932;25.904;2023-12-22T01:15:26;19.97;;;13.83;;
8704;SDS011;4389;41.932;25.904;2023-12-22T01:17:52;19.73;;;14.53;;
8704;SDS011;4389;41.932;25.904;2023-12-22T01:20:20;16.93;;;13.87;;
8704;SDS011;4389;41.932;25.904;2023-12-22T01:22:47;21.67;;;18.07;;
8704;SDS011;4389;41.932;25.904;2023-12-22T01:25:14;20.77;;;15.77;;
8704;SDS011;4389;41.932;25.904;2023-12-22T01:27:41;18.63;;;14.27;;
8704;SDS011;4389;41.932;25.904;2023-12-22T01:30:08;17.40;;;14.03;;
8704;SDS011;4389;41.932;25.904;2023-12-22T01:32:35;18.77;;;13.70;;
8704;SDS011;4389;41.932;25.904;2023-12-22T01:35:02;20.40;;;13.90;;
8704;SDS011;4389;41.932;25.904;2023-12-22T01:37:35;16.53;;;13.13;;
8704;SDS011;4389;41.932;25.904;2023-12-22T01:40:03;21.97;;;15.30;;
8704;SDS011;4389;41.932;25.904;2023-12-22T01:42:30;17.87;;;13.67;;
8704;SDS011;4389;41.932;25.904;2023-12-22T01:44:57;18.33;;;14.60;;
8704;SDS011;4389;41.932;25.904;2023-12-22T01:47:24;20.20;;;13.80;;
8704;SDS011;4389;41.932;25.904;2023-12-22T01:49:51;16.70;;;12.57;;
8704;SDS011;4389;41.932;25.904;2023-12-22T01:52:19;15.23;;;12.40;;
8704;SDS011;4389;41.932;25.904;2023-12-22T01:54:47;17.17;;;12.23;;
8704;SDS011;4389;41.932;25.904;2023-12-22T01:57:15;17.03;;;13.33;;
8704;SDS011;4389;41.932;25.904;2023-12-22T01:59:45;16.90;;;12.93;;
8704;SDS011;4389;41.932;25.904;2023-12-22T02:02:14;17.60;;;13.33;;
8704;SDS011;4389;41.932;25.904;2023-12-22T02:04:42;21.37;;;14.87;;
8704;SDS011;4389;41.932;25.904;2023-12-22T02:07:12;20.77;;;14.37;;
8704;SDS011;4389;41.932;25.904;2023-12-22T02:09:38;19.07;;;13.93;;
8704;SDS011;4389;41.932;25.904;2023-12-22T02:12:07;19.23;;;13.17;;
8704;SDS011;4389;41.932;25.904;2023-12-22T02:14:34;17.83;;;12.13;;
8704;SDS011;4389;41.932;25.904;2023-12-22T02:17:02;20.67;;;12.20;;
8704;SDS011;4389;41.932;25.904;2023-12-22T02:19:41;13.93;;;10.77;;
8704;SDS011;4389;41.932;25.904;2023-12-22T02:22:09;16.90;;;12.57;;
8704;SDS011;4389;41.932;25.904;2023-12-22T02:24:38;18.27;;;12.87;;
8704;SDS011;4389;41.932;25.904;2023-12-22T02:27:06;16.37;;;12.33;;
8704;SDS011;4389;41.932;25.904;2023-12-22T02:29:40;16.37;;;12.67;;
8704;SDS011;4389;41.932;25.904;2023-12-22T02:32:11;21.20;;;14.47;;
8704;SDS011;4389;41.932;25.904;2023-12-22T02:34:43;19.37;;;15.17;;
8704;SDS011;4389;41.932;25.904;2023-12-22T02:37:15;21.33;;;15.30;;
8704;SDS011;4389;41.932;25.904;2023-12-22T02:39:45;19.80;;;13.80;;
8704;SDS011;4389;41.932;25.904;2023-12-22T02:42:12;21.70;;;15.23;;
8704;SDS011;4389;41.932;25.904;2023-12-22T02:44:40;16.83;;;12.53;;
8704;SDS011;4389;41.932;25.904;2023-12-22T02:47:07;23.17;;;15.30;;
8704;SDS011;4389;41.932;25.904;2023-12-22T02:49:34;28.53;;;16.87;;
8704;SDS011;4389;41.932;25.904;2023-12-22T02:52:00;30.53;;;20.43;;
8704;SDS011;4389;41.932;25.904;2023-12-22T02:54:27;28.97;;;21.23;;
8704;SDS011;4389;41.932;25.904;2023-12-22T02:56:58;17.10;;;13.97;;
8704;SDS011;4389;41.932;25.904;2023-12-22T02:59:25;29.60;;;18.83;;
8704;SDS011;4389;41.932;25.904;2023-12-22T03:01:53;25.10;;;16.23;;
8704;SDS011;4389;41.932;25.904;2023-12-22T03:04:20;16.23;;;12.50;;
8704;SDS011;4389;41.932;25.904;2023-12-22T03:06:47;15.50;;;11.83;;
8704;SDS011;4389;41.932;25.904;2023-12-22T03:09:14;15.47;;;10.97;;
8704;SDS011;4389;41.932;25.904;2023-12-22T03:11:40;15.03;;;12.20;;
8704;SDS011;4389;41.932;25.904;2023-12-22T03:14:09;23.83;;;12.87;;
8704;SDS011;4389;41.932;25.904;2023-12-22T03:16:36;18.60;;;13.00;;
8704;SDS011;4389;41.932;25.904;2023-12-22T03:19:03;15.90;;;12.37;;
8704;SDS011;4389;41.932;25.904;2023-12-22T03:21:29;21.00;;;12.67;;
8704;SDS011;4389;41.932;25.904;2023-12-22T03:23:56;19.53;;;13.37;;
8704;SDS011;4389;41.932;25.904;2023-12-22T03:26:23;15.50;;;12.13;;
8704;SDS011;4389;41.932;25.904;2023-12-22T03:28:52;19.13;;;12.93;;
8704;SDS011;4389;41.932;25.904;2023-12-22T03:31:21;18.57;;;13.07;;
8704;SDS011;4389;41.932;25.904;2023-12-22T03:33:47;17.93;;;13.27;;
8704;SDS011;4389;41.932;25.904;2023-12-22T03:36:14;16.47;;;11.20;;
8704;SDS011;4389;41.932;25.904;2023-12-22T03:38:41;15.00;;;11.67;;
8704;SDS011;4389;41.932;25.904;2023-12-22T03:41:08;16.67;;;12.67;;
8704;SDS011;4389;41.932;25.904;2023-12-22T03:43:35;22.93;;;14.27;;
8704;SDS011;4389;41.932;25.904;2023-12-22T03:46:01;15.60;;;12.13;;
8704;SDS011;4389;41.932;25.904;2023-12-22T03:48:30;18.17;;;12.43;;
8704;SDS011;4389;41.932;25.904;2023-12-22T03:50:57;20.33;;;12.30;;
8704;SDS011;4389;41.932;25.904;2023-12-22T03:53:24;23.57;;;16.43;;
8704;SDS011;4389;41.932;25.904;2023-12-22T03:55:50;24.17;;;18.17;;
8704;SDS011;4389;41.932;25.904;2023-12-22T03:58:17;24.30;;;16.53;;
8704;SDS011;4389;41.932;25.904;2023-12-22T04:00:44;20.90;;;13.40;;
8704;SDS011;4389;41.932;25.904;2023-12-22T04:03:11;16.07;;;13.40;;
8704;SDS011;4389;41.932;25.904;2023-12-22T04:05:39;19.23;;;13.50;;
8704;SDS011;4389;41.932;25.904;2023-12-22T04:08:06;17.53;;;12.17;;
8704;SDS011;4389;41.932;25.904;2023-12-22T04:10:33;13.13;;;10.60;;
8704;SDS011;4389;41.932;25.904;2023-12-22T04:12:59;14.83;;;11.27;;
8704;SDS011;4389;41.932;25.904;2023-12-22T04:15:26;16.80;;;11.60;;
8704;SDS011;4389;41.932;25.904;2023-12-22T04:17:53;16.73;;;12.73;;
8704;SDS011;4389;41.932;25.904;2023-12-22T04:20:20;17.87;;;13.60;;
8704;SDS011;4389;41.932;25.904;2023-12-22T04:22:48;18.27;;;14.37;;
8704;SDS011;4389;41.932;25.904;2023-12-22T04:25:15;18.43;;;13.63;;
8704;SDS011;4389;41.932;25.904;2023-12-22T04:27:43;20.00;;;14.83;;
8704;SDS011;4389;41.932;25.904;2023-12-22T04:30:10;21.97;;;15.90;;
8704;SDS011;4389;41.932;25.904;2023-12-22T04:32:37;20.23;;;15.63;;
8704;SDS011;4389;41.932;25.904;2023-12-22T04:35:04;22.73;;;16.73;;
8704;SDS011;4389;41.932;25.904;2023-12-22T04:37:31;24.80;;;15.80;;
8704;SDS011;4389;41.932;25.904;2023-12-22T04:39:59;23.43;;;18.70;;
8704;SDS011;4389;41.932;25.904;2023-12-22T04:42:26;38.70;;;25.53;;
8704;SDS011;4389;41.932;25.904;2023-12-22T04:44:53;38.13;;;25.87;;
8704;SDS011;4389;41.932;25.904;2023-12-22T04:47:20;33.57;;;25.33;;
8704;SDS011;4389;41.932;25.904;2023-12-22T04:49:47;34.20;;;24.70;;
8704;SDS011;4389;41.932;25.904;2023-12-22T04:52:14;36.67;;;26.77;;
8704;SDS011;4389;41.932;25.904;2023-12-22T04:54:40;38.57;;;27.27;;
8704;SDS011;4389;41.932;25.904;2023-12-22T04:57:09;41.70;;;29.27;;
8704;SDS011;4389;41.932;25.904;2023-12-22T04:59:35;43.87;;;28.97;;
8704;SDS011;4389;41.932;25.904;2023-12-22T05:02:02;46.43;;;29.27;;
8704;SDS011;4389;41.932;25.904;2023-12-22T05:04:29;46.50;;;28.73;;
8704;SDS011;4389;41.932;25.904;2023-12-22T05:06:56;44.53;;;29.63;;
8704;SDS011;4389;41.932;25.904;2023-12-22T05:09:23;51.97;;;30.73;;
8704;SDS011;4389;41.932;25.904;2023-12-22T05:11:50;46.83;;;31.40;;
8704;SDS011;4389;41.932;25.904;2023-12-22T05:14:19;48.80;;;30.20;;
8704;SDS011;4389;41.932;25.904;2023-12-22T05:16:46;52.80;;;30.83;;
8704;SDS011;4389;41.932;25.904;2023-12-22T05:19:12;50.33;;;27.97;;
8704;SDS011;4389;41.932;25.904;2023-12-22T05:21:39;47.57;;;30.67;;
8704;SDS011;4389;41.932;25.904;2023-12-22T05:24:06;51.90;;;31.10;;
8704;SDS011;4389;41.932;25.904;2023-12-22T05:26:33;56.27;;;32.37;;
8704;SDS011;4389;41.932;25.904;2023-12-22T05:29:00;53.43;;;31.03;;
8704;SDS011;4389;41.932;25.904;2023-12-22T05:31:28;53.63;;;31.77;;
8704;SDS011;4389;41.932;25.904;2023-12-22T05:33:56;61.87;;;33.50;;
8704;SDS011;4389;41.932;25.904;2023-12-22T05:36:23;61.37;;;36.30;;
8704;SDS011;4389;41.932;25.904;2023-12-22T05:38:51;66.77;;;40.97;;
8704;SDS011;4389;41.932;25.904;2023-12-22T05:41:18;40.33;;;24.90;;
8704;SDS011;4389;41.932;25.904;2023-12-22T05:43:44;60.90;;;32.20;;
8704;SDS011;4389;41.932;25.904;2023-12-22T05:46:11;64.13;;;34.10;;
8704;SDS011;4389;41.932;25.904;2023-12-22T05:48:39;63.20;;;34.47;;
8704;SDS011;4389;41.932;25.904;2023-12-22T05:51:06;62.03;;;36.17;;
8704;SDS011;4389;41.932;25.904;2023-12-22T05:53:38;53.27;;;32.03;;
8704;SDS011;4389;41.932;25.904;2023-12-22T05:56:06;58.97;;;34.40;;
8704;SDS011;4389;41.932;25.904;2023-12-22T05:58:42;71.18;;;39.58;;
8704;SDS011;4389;41.932;25.904;2023-12-22T06:01:13;63.03;;;38.70;;
8704;SDS011;4389;41.932;25.904;2023-12-22T06:03:42;63.33;;;40.23;;
8704;SDS011;4389;41.932;25.904;2023-12-22T06:06:09;69.77;;;41.90;;
8704;SDS011;4389;41.932;25.904;2023-12-22T06:08:36;79.33;;;43.43;;
8704;SDS011;4389;41.932;25.904;2023-12-22T06:11:03;72.83;;;47.50;;
8704;SDS011;4389;41.932;25.904;2023-12-22T06:13:30;82.47;;;49.00;;
8704;SDS011;4389;41.932;25.904;2023-12-22T06:15:57;79.67;;;50.43;;
8704;SDS011;4389;41.932;25.904;2023-12-22T06:18:24;77.10;;;46.53;;
8704;SDS011;4389;41.932;25.904;2023-12-22T06:20:52;81.13;;;47.43;;
8704;SDS011;4389;41.932;25.904;2023-12-22T06:23:19;72.43;;;43.50;;
8704;SDS011;4389;41.932;25.904;2023-12-22T06:25:46;57.20;;;34.70;;
8704;SDS011;4389;41.932;25.904;2023-12-22T06:28:13;47.83;;;31.67;;
8704;SDS011;4389;41.932;25.904;2023-12-22T06:30:42;49.00;;;33.20;;
8704;SDS011;4389;41.932;25.904;2023-12-22T06:33:09;50.27;;;31.47;;
8704;SDS011;4389;41.932;25.904;2023-12-22T06:35:37;58.67;;;32.17;;
8704;SDS011;4389;41.932;25.904;2023-12-22T06:38:07;51.70;;;30.77;;
8704;SDS011;4389;41.932;25.904;2023-12-22T06:40:35;56.93;;;31.97;;
8704;SDS011;4389;41.932;25.904;2023-12-22T06:43:02;61.13;;;36.37;;
8704;SDS011;4389;41.932;25.904;2023-12-22T06:45:31;61.47;;;37.60;;
8704;SDS011;4389;41.932;25.904;2023-12-22T06:47:57;55.03;;;36.23;;
8704;SDS011;4389;41.932;25.904;2023-12-22T06:50:26;59.53;;;37.80;;
8704;SDS011;4389;41.932;25.904;2023-12-22T06:55:24;53.53;;;31.80;;
8704;SDS011;4389;41.932;25.904;2023-12-22T06:57:51;48.70;;;30.07;;
8704;SDS011;4389;41.932;25.904;2023-12-22T07:00:19;47.60;;;29.33;;
8704;SDS011;4389;41.932;25.904;2023-12-22T07:02:46;39.10;;;26.53;;
8704;SDS011;4389;41.932;25.904;2023-12-22T07:05:29;48.80;;;29.67;;
8704;SDS011;4389;41.932;25.904;2023-12-22T07:07:57;50.73;;;30.97;;
8704;SDS011;4389;41.932;25.904;2023-12-22T07:10:25;47.00;;;28.80;;
8704;SDS011;4389;41.932;25.904;2023-12-22T07:12:52;48.07;;;30.83;;
8704;SDS011;4389;41.932;25.904;2023-12-22T07:15:19;55.77;;;31.30;;
8704;SDS011;4389;41.932;25.904;2023-12-22T07:17:46;50.30;;;30.40;;
8704;SDS011;4389;41.932;25.904;2023-12-22T07:20:13;49.97;;;31.37;;
8704;SDS011;4389;41.932;25.904;2023-12-22T07:22:40;53.67;;;29.90;;
8704;SDS011;4389;41.932;25.904;2023-12-22T07:25:07;49.07;;;30.73;;
8704;SDS011;4389;41.932;25.904;2023-12-22T07:27:36;43.80;;;27.97;;
8704;SDS011;4389;41.932;25.904;2023-12-22T07:30:03;42.60;;;28.73;;
8704;SDS011;4389;41.932;25.904;2023-12-22T07:32:31;45.47;;;29.17;;
8704;SDS011;4389;41.932;25.904;2023-12-22T07:34:58;51.83;;;31.30;;
8704;SDS011;4389;41.932;25.904;2023-12-22T07:37:24;51.00;;;33.50;;
8704;SDS011;4389;41.932;25.904;2023-12-22T07:39:51;42.10;;;27.30;;
8704;SDS011;4389;41.932;25.904;2023-12-22T07:42:18;38.50;;;25.57;;
8704;SDS011;4389;41.932;25.904;2023-12-22T07:44:46;37.77;;;25.37;;
8704;SDS011;4389;41.932;25.904;2023-12-22T07:47:12;35.97;;;24.20;;
8704;SDS011;4389;41.932;25.904;2023-12-22T07:49:39;33.20;;;23.53;;
8704;SDS011;4389;41.932;25.904;2023-12-22T07:52:06;35.67;;;22.83;;
8704;SDS011;4389;41.932;25.904;2023-12-22T07:54:33;37.43;;;24.83;;
8704;SDS011;4389;41.932;25.904;2023-12-22T07:57:01;34.63;;;25.00;;
8704;SDS011;4389;41.932;25.904;2023-12-22T07:59:28;39.90;;;27.20;;
8704;SDS011;4389;41.932;25.904;2023-12-22T08:01:57;30.93;;;22.50;;
8704;SDS011;4389;41.932;25.904;2023-12-22T08:04:24;35.37;;;23.33;;
8704;SDS011;4389;41.932;25.904;2023-12-22T08:06:51;38.03;;;24.77;;
8704;SDS011;4389;41.932;25.904;2023-12-22T08:09:18;33.37;;;24.67;;
8704;SDS011;4389;41.932;25.904;2023-12-22T08:11:45;44.37;;;28.27;;
8704;SDS011;4389;41.932;25.904;2023-12-22T08:14:12;39.63;;;26.70;;
8704;SDS011;4389;41.932;25.904;2023-12-22T08:16:39;41.33;;;28.23;;
8704;SDS011;4389;41.932;25.904;2023-12-22T08:19:07;36.37;;;25.53;;
8704;SDS011;4389;41.932;25.904;2023-12-22T08:21:34;39.47;;;27.50;;
8704;SDS011;4389;41.932;25.904;2023-12-22T08:24:01;42.60;;;29.73;;
8704;SDS011;4389;41.932;25.904;2023-12-22T08:26:28;45.93;;;32.97;;
8704;SDS011;4389;41.932;25.904;2023-12-22T08:28:55;53.00;;;33.93;;
8704;SDS011;4389;41.932;25.904;2023-12-22T08:31:21;48.03;;;33.60;;
8704;SDS011;4389;41.932;25.904;2023-12-22T08:33:48;50.77;;;34.40;;
8704;SDS011;4389;41.932;25.904;2023-12-22T08:36:18;52.33;;;39.07;;
8704;SDS011;4389;41.932;25.904;2023-12-22T08:38:44;62.03;;;40.77;;
8704;SDS011;4389;41.932;25.904;2023-12-22T08:41:11;56.63;;;37.93;;
8704;SDS011;4389;41.932;25.904;2023-12-22T08:43:40;52.83;;;38.97;;
8704;SDS011;4389;41.932;25.904;2023-12-22T08:46:07;46.50;;;34.63;;
8704;SDS011;4389;41.932;25.904;2023-12-22T08:48:35;61.87;;;43.03;;
8704;SDS011;4389;41.932;25.904;2023-12-22T08:51:02;52.60;;;37.50;;
8704;SDS011;4389;41.932;25.904;2023-12-22T08:53:31;50.80;;;37.17;;
8704;SDS011;4389;41.932;25.904;2023-12-22T08:56:01;47.10;;;34.60;;
8704;SDS011;4389;41.932;25.904;2023-12-22T08:58:29;47.17;;;34.33;;
8704;SDS011;4389;41.932;25.904;2023-12-22T09:00:56;46.93;;;35.57;;
8704;SDS011;4389;41.932;25.904;2023-12-22T09:03:22;60.33;;;44.17;;
8704;SDS011;4389;41.932;25.904;2023-12-22T09:05:49;51.33;;;38.07;;
8704;SDS011;4389;41.932;25.904;2023-12-22T09:08:16;47.40;;;33.57;;
8704;SDS011;4389;41.932;25.904;2023-12-22T09:10:44;50.07;;;33.07;;
8704;SDS011;4389;41.932;25.904;2023-12-22T09:13:11;46.63;;;32.83;;
8704;SDS011;4389;41.932;25.904;2023-12-22T09:15:38;46.27;;;33.47;;
8704;SDS011;4389;41.932;25.904;2023-12-22T09:18:06;43.93;;;32.83;;
8704;SDS011;4389;41.932;25.904;2023-12-22T09:20:33;48.57;;;36.20;;
8704;SDS011;4389;41.932;25.904;2023-12-22T09:23:00;45.13;;;35.50;;
8704;SDS011;4389;41.932;25.904;2023-12-22T09:25:30;45.97;;;37.33;;
8704;SDS011;4389;41.932;25.904;2023-12-22T09:27:58;48.13;;;37.27;;
8704;SDS011;4389;41.932;25.904;2023-12-22T09:30:25;48.53;;;38.10;;
8704;SDS011;4389;41.932;25.904;2023-12-22T09:32:52;50.23;;;37.50;;
8704;SDS011;4389;41.932;25.904;2023-12-22T09:35:19;45.30;;;38.03;;
8704;SDS011;4389;41.932;25.904;2023-12-22T09:37:45;60.60;;;42.27;;
8704;SDS011;4389;41.932;25.904;2023-12-22T09:40:12;53.03;;;41.47;;
8704;SDS011;4389;41.932;25.904;2023-12-22T09:42:40;57.20;;;42.80;;
8704;SDS011;4389;41.932;25.904;2023-12-22T09:45:11;66.90;;;48.97;;
8704;SDS011;4389;41.932;25.904;2023-12-22T09:47:39;61.87;;;46.70;;
8704;SDS011;4389;41.932;25.904;2023-12-22T09:50:09;81.23;;;54.07;;
8704;SDS011;4389;41.932;25.904;2023-12-22T09:52:36;67.83;;;51.07;;
8704;SDS011;4389;41.932;25.904;2023-12-22T09:55:05;75.20;;;53.47;;
8704;SDS011;4389;41.932;25.904;2023-12-22T09:57:35;74.53;;;50.13;;
8704;SDS011;4389;41.932;25.904;2023-12-22T10:00:04;61.20;;;47.50;;
8704;SDS011;4389;41.932;25.904;2023-12-22T10:02:34;70.03;;;50.80;;
8704;SDS011;4389;41.932;25.904;2023-12-22T10:05:02;68.80;;;51.30;;
8704;SDS011;4389;41.932;25.904;2023-12-22T10:07:30;63.57;;;47.40;;
8704;SDS011;4389;41.932;25.904;2023-12-22T10:09:59;68.27;;;48.57;;
8704;SDS011;4389;41.932;25.904;2023-12-22T10:12:27;65.07;;;48.77;;
8704;SDS011;4389;41.932;25.904;2023-12-22T10:14:55;67.63;;;51.27;;
8704;SDS011;4389;41.932;25.904;2023-12-22T10:17:23;64.83;;;48.37;;
8704;SDS011;4389;41.932;25.904;2023-12-22T10:19:51;79.33;;;54.20;;
8704;SDS011;4389;41.932;25.904;2023-12-22T10:22:18;89.40;;;61.03;;
8704;SDS011;4389;41.932;25.904;2023-12-22T10:24:48;86.30;;;61.03;;
8704;SDS011;4389;41.932;25.904;2023-12-22T10:27:16;103.93;;;72.30;;
8704;SDS011;4389;41.932;25.904;2023-12-22T10:29:47;76.13;;;58.37;;
8704;SDS011;4389;41.932;25.904;2023-12-22T10:32:15;82.53;;;64.07;;
8704;SDS011;4389;41.932;25.904;2023-12-22T10:34:42;84.97;;;62.97;;
8704;SDS011;4389;41.932;25.904;2023-12-22T10:37:12;90.93;;;67.03;;
8704;SDS011;4389;41.932;25.904;2023-12-22T10:39:39;90.20;;;69.10;;
8704;SDS011;4389;41.932;25.904;2023-12-22T10:42:06;96.03;;;72.33;;
8704;SDS011;4389;41.932;25.904;2023-12-22T10:44:33;98.30;;;72.87;;
8704;SDS011;4389;41.932;25.904;2023-12-22T10:47:00;101.03;;;71.73;;
8704;SDS011;4389;41.932;25.904;2023-12-22T10:49:28;92.60;;;67.93;;
8704;SDS011;4389;41.932;25.904;2023-12-22T10:51:56;76.97;;;58.17;;
8704;SDS011;4389;41.932;25.904;2023-12-22T10:54:24;64.27;;;46.67;;
8704;SDS011;4389;41.932;25.904;2023-12-22T10:56:52;57.73;;;42.83;;
8704;SDS011;4389;41.932;25.904;2023-12-22T10:59:23;53.33;;;39.47;;
8704;SDS011;4389;41.932;25.904;2023-12-22T11:01:55;43.87;;;34.17;;
8704;SDS011;4389;41.932;25.904;2023-12-22T11:04:25;44.87;;;35.03;;
8704;SDS011;4389;41.932;25.904;2023-12-22T11:06:57;44.17;;;30.50;;
8704;SDS011;4389;41.932;25.904;2023-12-22T11:09:25;41.70;;;29.93;;
8704;SDS011;4389;41.932;25.904;2023-12-22T11:11:55;41.17;;;30.23;;
8704;SDS011;4389;41.932;25.904;2023-12-22T11:14:23;39.37;;;29.00;;
8704;SDS011;4389;41.932;25.904;2023-12-22T11:16:52;45.17;;;31.13;;
8704;SDS011;4389;41.932;25.904;2023-12-22T11:19:21;40.63;;;30.10;;
8704;SDS011;4389;41.932;25.904;2023-12-22T11:21:50;42.73;;;30.17;;
8704;SDS011;4389;41.932;25.904;2023-12-22T11:24:20;38.07;;;27.90;;
8704;SDS011;4389;41.932;25.904;2023-12-22T11:26:49;35.93;;;26.80;;
8704;SDS011;4389;41.932;25.904;2023-12-22T11:29:17;36.20;;;27.27;;
8704;SDS011;4389;41.932;25.904;2023-12-22T11:31:47;30.57;;;24.43;;
8704;SDS011;4389;41.932;25.904;2023-12-22T11:34:16;36.27;;;30.57;;
8704;SDS011;4389;41.932;25.904;2023-12-22T11:36:44;41.57;;;31.97;;
8704;SDS011;4389;41.932;25.904;2023-12-22T11:39:13;33.47;;;25.10;;
8704;SDS011;4389;41.932;25.904;2023-12-22T11:41:40;33.83;;;26.73;;
8704;SDS011;4389;41.932;25.904;2023-12-22T11:44:10;47.60;;;35.00;;
8704;SDS011;4389;41.932;25.904;2023-12-22T11:46:38;42.10;;;31.80;;
8704;SDS011;4389;41.932;25.904;2023-12-22T11:49:04;42.23;;;32.17;;
8704;SDS011;4389;41.932;25.904;2023-12-22T11:51:32;52.87;;;36.37;;
8704;SDS011;4389;41.932;25.904;2023-12-22T11:54:00;80.47;;;49.73;;
8704;SDS011;4389;41.932;25.904;2023-12-22T11:56:28;71.23;;;50.37;;
8704;SDS011;4389;41.932;25.904;2023-12-22T11:58:56;55.17;;;42.13;;
8704;SDS011;4389;41.932;25.904;2023-12-22T12:01:25;57.47;;;47.93;;
8704;SDS011;4389;41.932;25.904;2023-12-22T12:03:57;58.77;;;43.60;;
8704;SDS011;4389;41.932;25.904;2023-12-22T12:06:32;61.93;;;49.20;;
8704;SDS011;4389;41.932;25.904;2023-12-22T12:09:03;70.90;;;49.73;;
8704;SDS011;4389;41.932;25.904;2023-12-22T12:14:37;71.33;;;50.47;;
8704;SDS011;4389;41.932;25.904;2023-12-22T12:17:10;59.47;;;44.23;;
8704;SDS011;4389;41.932;25.904;2023-12-22T12:19:38;52.27;;;41.77;;
8704;SDS011;4389;41.932;25.904;2023-12-22T12:22:07;55.93;;;41.83;;
8704;SDS011;4389;41.932;25.904;2023-12-22T12:24:35;48.00;;;37.70;;
8704;SDS011;4389;41.932;25.904;2023-12-22T12:27:03;36.70;;;30.20;;
8704;SDS011;4389;41.932;25.904;2023-12-22T12:29:30;38.37;;;31.03;;
8704;SDS011;4389;41.932;25.904;2023-12-22T12:32:02;34.47;;;29.70;;
8704;SDS011;4389;41.932;25.904;2023-12-22T12:34:32;37.90;;;30.40;;
8704;SDS011;4389;41.932;25.904;2023-12-22T12:36:59;40.10;;;29.80;;
8704;SDS011;4389;41.932;25.904;2023-12-22T12:39:28;41.13;;;32.10;;
8704;SDS011;4389;41.932;25.904;2023-12-22T12:41:56;38.13;;;31.10;;
8704;SDS011;4389;41.932;25.904;2023-12-22T12:44:26;36.97;;;30.70;;
8704;SDS011;4389;41.932;25.904;2023-12-22T12:46:53;38.83;;;27.73;;
8704;SDS011;4389;41.932;25.904;2023-12-22T12:49:21;42.43;;;32.47;;
8704;SDS011;4389;41.932;25.904;2023-12-22T12:51:54;41.63;;;31.43;;
8704;SDS011;4389;41.932;25.904;2023-12-22T12:54:20;35.20;;;28.50;;
8704;SDS011;4389;41.932;25.904;2023-12-22T12:56:47;33.67;;;28.03;;
8704;SDS011;4389;41.932;25.904;2023-12-22T12:59:15;39.53;;;30.73;;
8704;SDS011;4389;41.932;25.904;2023-12-22T13:01:43;43.23;;;32.13;;
8704;SDS011;4389;41.932;25.904;2023-12-22T13:04:11;32.00;;;27.20;;
8704;SDS011;4389;41.932;25.904;2023-12-22T13:06:48;31.50;;;26.63;;
8704;SDS011;4389;41.932;25.904;2023-12-22T13:09:17;36.67;;;26.93;;
8704;SDS011;4389;41.932;25.904;2023-12-22T13:11:45;35.67;;;26.97;;
8704;SDS011;4389;41.932;25.904;2023-12-22T13:14:12;38.57;;;27.30;;
8704;SDS011;4389;41.932;25.904;2023-12-22T13:16:48;37.83;;;28.73;;
8704;SDS011;4389;41.932;25.904;2023-12-22T13:19:15;35.30;;;27.57;;
8704;SDS011;4389;41.932;25.904;2023-12-22T13:21:42;43.80;;;32.67;;
8704;SDS011;4389;41.932;25.904;2023-12-22T13:24:09;38.33;;;29.63;;
8704;SDS011;4389;41.932;25.904;2023-12-22T13:26:39;37.40;;;29.33;;
8704;SDS011;4389;41.932;25.904;2023-12-22T13:29:07;34.60;;;28.00;;
8704;SDS011;4389;41.932;25.904;2023-12-22T13:31:36;44.33;;;27.43;;
8704;SDS011;4389;41.932;25.904;2023-12-22T13:34:07;37.77;;;29.43;;
8704;SDS011;4389;41.932;25.904;2023-12-22T13:36:35;43.93;;;31.60;;
8704;SDS011;4389;41.932;25.904;2023-12-22T13:39:02;48.77;;;35.20;;
8704;SDS011;4389;41.932;25.904;2023-12-22T13:41:31;42.27;;;33.17;;
8704;SDS011;4389;41.932;25.904;2023-12-22T13:44:03;46.30;;;34.13;;
8704;SDS011;4389;41.932;25.904;2023-12-22T13:46:31;44.53;;;33.20;;
8704;SDS011;4389;41.932;25.904;2023-12-22T13:49:00;42.17;;;32.03;;
8704;SDS011;4389;41.932;25.904;2023-12-22T13:51:37;50.20;;;36.00;;
8704;SDS011;4389;41.932;25.904;2023-12-22T13:54:05;43.13;;;33.30;;
8704;SDS011;4389;41.932;25.904;2023-12-22T13:56:32;41.80;;;32.60;;
8704;SDS011;4389;41.932;25.904;2023-12-22T13:59:00;43.13;;;33.73;;
8704;SDS011;4389;41.932;25.904;2023-12-22T14:01:28;46.50;;;35.50;;
8704;SDS011;4389;41.932;25.904;2023-12-22T14:03:55;47.90;;;37.07;;
8704;SDS011;4389;41.932;25.904;2023-12-22T14:06:24;50.77;;;36.97;;
8704;SDS011;4389;41.932;25.904;2023-12-22T14:08:51;60.23;;;46.43;;
8704;SDS011;4389;41.932;25.904;2023-12-22T14:11:18;56.07;;;42.27;;
8704;SDS011;4389;41.932;25.904;2023-12-22T14:13:44;51.20;;;37.50;;
8704;SDS011;4389;41.932;25.904;2023-12-22T14:16:11;59.93;;;42.93;;
8704;SDS011;4389;41.932;25.904;2023-12-22T14:18:40;65.60;;;48.77;;
8704;SDS011;4389;41.932;25.904;2023-12-22T14:21:07;70.20;;;51.77;;
8704;SDS011;4389;41.932;25.904;2023-12-22T14:23:33;65.23;;;49.93;;
8704;SDS011;4389;41.932;25.904;2023-12-22T14:26:01;69.37;;;52.63;;
8704;SDS011;4389;41.932;25.904;2023-12-22T14:28:28;81.77;;;51.30;;
8704;SDS011;4389;41.932;25.904;2023-12-22T14:30:55;68.37;;;50.40;;
8704;SDS011;4389;41.932;25.904;2023-12-22T14:33:21;54.97;;;40.33;;
8704;SDS011;4389;41.932;25.904;2023-12-22T14:35:50;52.83;;;40.23;;
8704;SDS011;4389;41.932;25.904;2023-12-22T14:38:16;48.20;;;37.93;;
8704;SDS011;4389;41.932;25.904;2023-12-22T14:40:43;41.90;;;34.07;;
8704;SDS011;4389;41.932;25.904;2023-12-22T14:43:10;46.50;;;37.10;;